sensor_id;sensor_type;location;lat;lon;timestamp;temperature;humidity
44215;DHT22;29884;47.450;19.124;2023-04-01T00:00:23;9.70;99.90
44215;DHT22;29884;47.450;19.124;2023-04-01T00:02:49;9.70;99.90
44215;DHT22;29884;47.450;19.124;2023-04-01T00:05:14;9.70;99.90
44215;DHT22;29884;47.450;19.124;2023-04-01T00:07:41;9.70;99.90
44215;DHT22;29884;47.450;19.124;2023-04-01T00:10:10;9.70;99.90
44215;DHT22;29884;47.450;19.124;2023-04-01T00:12:36;9.60;99.90
44215;DHT22;29884;47.450;19.124;2023-04-01T00:15:04;9.70;99.90
44215;DHT22;29884;47.450;19.124;2023-04-01T00:17:30;9.60;99.90
44215;DHT22;29884;47.450;19.124;2023-04-01T00:19:56;9.60;99.90
44215;DHT22;29884;47.450;19.124;2023-04-01T00:22:23;9.60;99.90
44215;DHT22;29884;47.450;19.124;2023-04-01T00:24:49;9.60;99.90
44215;DHT22;29884;47.450;19.124;2023-04-01T00:27:15;9.60;99.90
44215;DHT22;29884;47.450;19.124;2023-04-01T00:29:46;9.60;99.90
44215;DHT22;29884;47.450;19.124;2023-04-01T00:32:12;9.60;99.90
44215;DHT22;29884;47.450;19.124;2023-04-01T00:34:38;9.50;99.90
44215;DHT22;29884;47.450;19.124;2023-04-01T00:37:05;9.50;99.90
44215;DHT22;29884;47.450;19.124;2023-04-01T00:39:32;9.50;99.90
44215;DHT22;29884;47.450;19.124;2023-04-01T00:41:59;9.50;99.90
44215;DHT22;29884;47.450;19.124;2023-04-01T00:44:30;9.50;99.90
44215;DHT22;29884;47.450;19.124;2023-04-01T00:46:56;9.50;99.90
44215;DHT22;29884;47.450;19.124;2023-04-01T00:49:27;9.50;99.90
44215;DHT22;29884;47.450;19.124;2023-04-01T00:51:56;9.50;99.90
44215;DHT22;29884;47.450;19.124;2023-04-01T00:54:24;9.40;99.90
44215;DHT22;29884;47.450;19.124;2023-04-01T00:56:57;9.40;99.90
44215;DHT22;29884;47.450;19.124;2023-04-01T00:59:29;9.40;99.90
44215;DHT22;29884;47.450;19.124;2023-04-01T01:01:56;9.40;99.90
44215;DHT22;29884;47.450;19.124;2023-04-01T01:04:33;9.40;99.90
44215;DHT22;29884;47.450;19.124;2023-04-01T01:10:19;9.40;99.90
44215;DHT22;29884;47.450;19.124;2023-04-01T01:15:23;9.50;99.90
44215;DHT22;29884;47.450;19.124;2023-04-01T01:31:58;9.40;99.90
44215;DHT22;29884;47.450;19.124;2023-04-01T01:37:19;9.50;99.90
44215;DHT22;29884;47.450;19.124;2023-04-01T01:39:51;9.50;99.90
44215;DHT22;29884;47.450;19.124;2023-04-01T01:42:18;9.30;99.90
44215;DHT22;29884;47.450;19.124;2023-04-01T01:44:46;9.40;99.90
44215;DHT22;29884;47.450;19.124;2023-04-01T01:47:14;9.40;99.90
44215;DHT22;29884;47.450;19.124;2023-04-01T01:49:42;9.40;99.90
44215;DHT22;29884;47.450;19.124;2023-04-01T01:52:09;9.40;99.90
44215;DHT22;29884;47.450;19.124;2023-04-01T01:54:35;9.30;99.90
44215;DHT22;29884;47.450;19.124;2023-04-01T01:57:10;9.40;99.90
44215;DHT22;29884;47.450;19.124;2023-04-01T01:59:38;9.40;99.90
44215;DHT22;29884;47.450;19.124;2023-04-01T02:02:07;9.40;99.90
44215;DHT22;29884;47.450;19.124;2023-04-01T02:04:39;9.40;99.90
44215;DHT22;29884;47.450;19.124;2023-04-01T02:07:12;9.40;99.90
44215;DHT22;29884;47.450;19.124;2023-04-01T02:09:39;9.40;99.90
44215;DHT22;29884;47.450;19.124;2023-04-01T02:12:11;9.40;99.90
44215;DHT22;29884;47.450;19.124;2023-04-01T02:14:50;9.40;99.90
44215;DHT22;29884;47.450;19.124;2023-04-01T02:17:19;9.40;99.90
44215;DHT22;29884;47.450;19.124;2023-04-01T02:22:24;9.40;99.90
44215;DHT22;29884;47.450;19.124;2023-04-01T02:24:53;9.40;99.90
44215;DHT22;29884;47.450;19.124;2023-04-01T02:27:20;9.40;99.90
44215;DHT22;29884;47.450;19.124;2023-04-01T02:29:46;9.30;99.90
44215;DHT22;29884;47.450;19.124;2023-04-01T02:32:13;9.30;99.90
44215;DHT22;29884;47.450;19.124;2023-04-01T02:34:40;9.30;99.90
44215;DHT22;29884;47.450;19.124;2023-04-01T02:37:06;9.30;99.90
44215;DHT22;29884;47.450;19.124;2023-04-01T02:39:32;9.30;99.90
44215;DHT22;29884;47.450;19.124;2023-04-01T02:41:58;9.30;99.90
44215;DHT22;29884;47.450;19.124;2023-04-01T02:44:24;9.30;99.90
44215;DHT22;29884;47.450;19.124;2023-04-01T02:46:49;9.30;99.90
44215;DHT22;29884;47.450;19.124;2023-04-01T02:49:15;9.30;99.90
44215;DHT22;29884;47.450;19.124;2023-04-01T02:51:41;9.30;99.90
44215;DHT22;29884;47.450;19.124;2023-04-01T02:54:06;9.20;99.90
44215;DHT22;29884;47.450;19.124;2023-04-01T02:56:32;9.20;99.90
44215;DHT22;29884;47.450;19.124;2023-04-01T02:58:58;9.30;99.90
44215;DHT22;29884;47.450;19.124;2023-04-01T03:01:23;9.20;99.90
44215;DHT22;29884;47.450;19.124;2023-04-01T03:03:49;9.20;99.90
44215;DHT22;29884;47.450;19.124;2023-04-01T03:06:16;9.20;99.90
44215;DHT22;29884;47.450;19.124;2023-04-01T03:08:43;9.30;99.90
44215;DHT22;29884;47.450;19.124;2023-04-01T03:11:10;9.20;99.90
44215;DHT22;29884;47.450;19.124;2023-04-01T03:13:36;9.20;99.90
44215;DHT22;29884;47.450;19.124;2023-04-01T03:16:02;9.20;99.90
44215;DHT22;29884;47.450;19.124;2023-04-01T03:18:29;9.10;99.90
44215;DHT22;29884;47.450;19.124;2023-04-01T03:20:54;9.20;99.90
44215;DHT22;29884;47.450;19.124;2023-04-01T03:23:20;9.10;99.90
44215;DHT22;29884;47.450;19.124;2023-04-01T03:25:47;9.10;99.90
44215;DHT22;29884;47.450;19.124;2023-04-01T03:28:13;9.10;99.90
44215;DHT22;29884;47.450;19.124;2023-04-01T03:30:39;9.10;99.90
44215;DHT22;29884;47.450;19.124;2023-04-01T03:33:05;9.10;99.90
44215;DHT22;29884;47.450;19.124;2023-04-01T03:35:32;9.10;99.90
44215;DHT22;29884;47.450;19.124;2023-04-01T03:37:58;9.10;99.90
44215;DHT22;29884;47.450;19.124;2023-04-01T03:40:23;9.10;99.90
44215;DHT22;29884;47.450;19.124;2023-04-01T03:42:51;9.10;99.90
44215;DHT22;29884;47.450;19.124;2023-04-01T03:45:18;9.20;99.90
44215;DHT22;29884;47.450;19.124;2023-04-01T03:47:44;9.20;99.90
44215;DHT22;29884;47.450;19.124;2023-04-01T03:50:10;9.20;99.90
44215;DHT22;29884;47.450;19.124;2023-04-01T03:52:36;9.20;99.90
44215;DHT22;29884;47.450;19.124;2023-04-01T03:55:02;9.10;99.90
44215;DHT22;29884;47.450;19.124;2023-04-01T03:57:28;9.10;99.90
44215;DHT22;29884;47.450;19.124;2023-04-01T03:59:54;9.10;99.90
44215;DHT22;29884;47.450;19.124;2023-04-01T04:02:19;9.10;99.90
44215;DHT22;29884;47.450;19.124;2023-04-01T04:04:45;9.10;99.90
44215;DHT22;29884;47.450;19.124;2023-04-01T04:07:13;9.10;99.90
44215;DHT22;29884;47.450;19.124;2023-04-01T04:09:38;9.00;99.90
44215;DHT22;29884;47.450;19.124;2023-04-01T04:12:04;9.00;99.90
44215;DHT22;29884;47.450;19.124;2023-04-01T04:14:31;9.00;99.90
44215;DHT22;29884;47.450;19.124;2023-04-01T04:16:57;8.90;99.90
44215;DHT22;29884;47.450;19.124;2023-04-01T04:19:23;8.90;99.90
44215;DHT22;29884;47.450;19.124;2023-04-01T04:21:50;8.90;99.90
44215;DHT22;29884;47.450;19.124;2023-04-01T04:24:16;8.90;99.90
44215;DHT22;29884;47.450;19.124;2023-04-01T04:26:41;8.90;99.90
44215;DHT22;29884;47.450;19.124;2023-04-01T04:29:07;8.80;99.90
44215;DHT22;29884;47.450;19.124;2023-04-01T04:31:33;8.80;99.90
44215;DHT22;29884;47.450;19.124;2023-04-01T04:33:59;8.80;99.90
44215;DHT22;29884;47.450;19.124;2023-04-01T04:36:26;8.70;99.90
44215;DHT22;29884;47.450;19.124;2023-04-01T04:38:52;8.80;99.90
44215;DHT22;29884;47.450;19.124;2023-04-01T04:41:18;8.70;99.90
44215;DHT22;29884;47.450;19.124;2023-04-01T04:43:53;8.70;99.90
44215;DHT22;29884;47.450;19.124;2023-04-01T04:46:19;8.80;99.90
44215;DHT22;29884;47.450;19.124;2023-04-01T04:48:45;8.80;99.90
44215;DHT22;29884;47.450;19.124;2023-04-01T04:51:15;8.80;99.90
44215;DHT22;29884;47.450;19.124;2023-04-01T04:53:41;8.80;99.90
44215;DHT22;29884;47.450;19.124;2023-04-01T04:56:07;8.90;99.90
44215;DHT22;29884;47.450;19.124;2023-04-01T04:58:32;8.90;99.90
44215;DHT22;29884;47.450;19.124;2023-04-01T05:00:59;8.90;99.90
44215;DHT22;29884;47.450;19.124;2023-04-01T05:03:30;8.90;99.90
44215;DHT22;29884;47.450;19.124;2023-04-01T05:05:55;8.90;99.90
44215;DHT22;29884;47.450;19.124;2023-04-01T05:08:21;8.90;99.90
44215;DHT22;29884;47.450;19.124;2023-04-01T05:10:47;8.90;99.90
44215;DHT22;29884;47.450;19.124;2023-04-01T05:13:13;9.00;99.90
44215;DHT22;29884;47.450;19.124;2023-04-01T05:15:39;9.00;99.90
44215;DHT22;29884;47.450;19.124;2023-04-01T05:18:04;9.00;99.90
44215;DHT22;29884;47.450;19.124;2023-04-01T05:20:30;9.10;99.90
44215;DHT22;29884;47.450;19.124;2023-04-01T05:22:56;9.20;99.90
44215;DHT22;29884;47.450;19.124;2023-04-01T05:25:23;9.20;99.90
44215;DHT22;29884;47.450;19.124;2023-04-01T05:27:48;9.20;99.90
44215;DHT22;29884;47.450;19.124;2023-04-01T05:30:14;9.40;99.90
44215;DHT22;29884;47.450;19.124;2023-04-01T05:32:40;9.50;99.90
44215;DHT22;29884;47.450;19.124;2023-04-01T05:35:06;9.70;99.90
44215;DHT22;29884;47.450;19.124;2023-04-01T05:37:34;9.80;99.90
44215;DHT22;29884;47.450;19.124;2023-04-01T05:40:00;10.00;99.90
44215;DHT22;29884;47.450;19.124;2023-04-01T05:42:26;10.10;99.90
44215;DHT22;29884;47.450;19.124;2023-04-01T05:44:52;10.20;99.90
44215;DHT22;29884;47.450;19.124;2023-04-01T05:47:18;10.30;99.90
44215;DHT22;29884;47.450;19.124;2023-04-01T05:49:43;10.40;99.90
44215;DHT22;29884;47.450;19.124;2023-04-01T05:52:09;10.40;99.90
44215;DHT22;29884;47.450;19.124;2023-04-01T05:54:35;10.40;99.90
44215;DHT22;29884;47.450;19.124;2023-04-01T05:57:01;10.50;99.90
44215;DHT22;29884;47.450;19.124;2023-04-01T05:59:26;10.60;99.90
44215;DHT22;29884;47.450;19.124;2023-04-01T06:01:53;10.80;99.90
44215;DHT22;29884;47.450;19.124;2023-04-01T06:04:18;10.80;99.90
44215;DHT22;29884;47.450;19.124;2023-04-01T06:06:45;10.90;99.90
44215;DHT22;29884;47.450;19.124;2023-04-01T06:09:24;10.90;99.90
44215;DHT22;29884;47.450;19.124;2023-04-01T06:25:28;11.00;99.90
44215;DHT22;29884;47.450;19.124;2023-04-01T06:28:17;11.20;99.90
44215;DHT22;29884;47.450;19.124;2023-04-01T06:37:15;11.30;99.90
44215;DHT22;29884;47.450;19.124;2023-04-01T06:56:07;12.00;99.90
44215;DHT22;29884;47.450;19.124;2023-04-01T07:01:07;12.20;99.90
44215;DHT22;29884;47.450;19.124;2023-04-01T07:06:08;12.20;99.90
44215;DHT22;29884;47.450;19.124;2023-04-01T07:08:40;12.20;99.90
44215;DHT22;29884;47.450;19.124;2023-04-01T07:11:10;12.20;99.90
44215;DHT22;29884;47.450;19.124;2023-04-01T07:21:46;12.40;99.90
44215;DHT22;29884;47.450;19.124;2023-04-01T07:24:27;12.40;99.90
44215;DHT22;29884;47.450;19.124;2023-04-01T07:26:56;12.40;99.90
44215;DHT22;29884;47.450;19.124;2023-04-01T07:29:23;12.50;99.90
44215;DHT22;29884;47.450;19.124;2023-04-01T07:43:56;13.00;99.90
44215;DHT22;29884;47.450;19.124;2023-04-01T07:49:14;13.00;99.90
44215;DHT22;29884;47.450;19.124;2023-04-01T07:57:01;13.30;99.90
44215;DHT22;29884;47.450;19.124;2023-04-01T07:59:38;13.40;99.90
44215;DHT22;29884;47.450;19.124;2023-04-01T08:07:36;13.80;99.90
44215;DHT22;29884;47.450;19.124;2023-04-01T08:18:39;14.20;99.90
44215;DHT22;29884;47.450;19.124;2023-04-01T08:21:21;14.40;99.90
44215;DHT22;29884;47.450;19.124;2023-04-01T08:23:57;14.30;99.90
44215;DHT22;29884;47.450;19.124;2023-04-01T08:26:45;14.20;99.90
44215;DHT22;29884;47.450;19.124;2023-04-01T08:29:23;14.40;99.90
44215;DHT22;29884;47.450;19.124;2023-04-01T08:34:24;14.60;99.90
44215;DHT22;29884;47.450;19.124;2023-04-01T08:37:05;14.70;99.90
44215;DHT22;29884;47.450;19.124;2023-04-01T08:39:55;14.60;99.90
44215;DHT22;29884;47.450;19.124;2023-04-01T08:46:17;14.60;99.90
44215;DHT22;29884;47.450;19.124;2023-04-01T08:52:02;14.50;99.90
44215;DHT22;29884;47.450;19.124;2023-04-01T08:54:38;14.40;99.90
44215;DHT22;29884;47.450;19.124;2023-04-01T09:08:55;14.40;99.90
44215;DHT22;29884;47.450;19.124;2023-04-01T09:14:21;14.10;99.90
44215;DHT22;29884;47.450;19.124;2023-04-01T09:36:43;14.20;99.90
44215;DHT22;29884;47.450;19.124;2023-04-01T09:39:42;14.20;99.90
44215;DHT22;29884;47.450;19.124;2023-04-01T09:53:32;13.60;99.90
44215;DHT22;29884;47.450;19.124;2023-04-01T10:07:33;13.60;99.90
44215;DHT22;29884;47.450;19.124;2023-04-01T10:41:28;14.10;99.90
44215;DHT22;29884;47.450;19.124;2023-04-01T10:57:53;14.40;99.90
44215;DHT22;29884;47.450;19.124;2023-04-01T11:09:44;14.70;99.90
44215;DHT22;29884;47.450;19.124;2023-04-01T11:15:26;14.60;99.90
44215;DHT22;29884;47.450;19.124;2023-04-01T11:28:57;14.60;99.90
44215;DHT22;29884;47.450;19.124;2023-04-01T11:40:02;15.00;99.90
44215;DHT22;29884;47.450;19.124;2023-04-01T11:48:32;14.70;99.90
44215;DHT22;29884;47.450;19.124;2023-04-01T11:51:15;14.50;99.90
44215;DHT22;29884;47.450;19.124;2023-04-01T13:01:18;15.10;99.90
44215;DHT22;29884;47.450;19.124;2023-04-01T13:28:14;16.20;99.90
44215;DHT22;29884;47.450;19.124;2023-04-01T13:31:01;16.20;99.40
44215;DHT22;29884;47.450;19.124;2023-04-01T13:37:18;15.70;98.60
44215;DHT22;29884;47.450;19.124;2023-04-01T13:39:30;15.80;99.80
44215;DHT22;29884;47.450;19.124;2023-04-01T13:42:21;15.90;98.50
44215;DHT22;29884;47.450;19.124;2023-04-01T13:45:17;15.90;98.10
44215;DHT22;29884;47.450;19.124;2023-04-01T13:56:41;15.70;97.30
44215;DHT22;29884;47.450;19.124;2023-04-01T13:59:48;15.80;98.40
44215;DHT22;29884;47.450;19.124;2023-04-01T14:23:48;15.50;99.50
44215;DHT22;29884;47.450;19.124;2023-04-01T14:29:16;15.10;99.10
44215;DHT22;29884;47.450;19.124;2023-04-01T14:53:52;14.50;99.90
44215;DHT22;29884;47.450;19.124;2023-04-01T14:56:36;14.40;99.90
44215;DHT22;29884;47.450;19.124;2023-04-01T14:59:15;14.40;99.90
44215;DHT22;29884;47.450;19.124;2023-04-01T15:01:52;14.50;99.90
44215;DHT22;29884;47.450;19.124;2023-04-01T15:07:35;14.50;99.90
44215;DHT22;29884;47.450;19.124;2023-04-01T15:10:19;14.60;99.90
44215;DHT22;29884;47.450;19.124;2023-04-01T15:13:28;14.80;99.90
44215;DHT22;29884;47.450;19.124;2023-04-01T15:18:38;15.00;99.90
44215;DHT22;29884;47.450;19.124;2023-04-01T15:23:59;14.90;99.90
44215;DHT22;29884;47.450;19.124;2023-04-01T15:38:19;14.80;99.90
44215;DHT22;29884;47.450;19.124;2023-04-01T15:49:12;15.00;99.90
44215;DHT22;29884;47.450;19.124;2023-04-01T15:54:27;15.10;99.60
44215;DHT22;29884;47.450;19.124;2023-04-01T15:57:20;15.10;99.40
44215;DHT22;29884;47.450;19.124;2023-04-01T16:05:30;15.10;98.40
44215;DHT22;29884;47.450;19.124;2023-04-01T16:13:59;15.30;96.70
44215;DHT22;29884;47.450;19.124;2023-04-01T16:19:12;15.20;95.00
44215;DHT22;29884;47.450;19.124;2023-04-01T16:21:53;15.20;93.60
44215;DHT22;29884;47.450;19.124;2023-04-01T16:24:50;15.20;94.20
44215;DHT22;29884;47.450;19.124;2023-04-01T16:30:00;15.20;94.20
44215;DHT22;29884;47.450;19.124;2023-04-01T16:32:41;15.10;94.50
44215;DHT22;29884;47.450;19.124;2023-04-01T16:38:36;15.10;93.10
44215;DHT22;29884;47.450;19.124;2023-04-01T16:41:20;15.10;93.50
44215;DHT22;29884;47.450;19.124;2023-04-01T16:43:56;15.10;93.60
44215;DHT22;29884;47.450;19.124;2023-04-01T16:52:34;14.80;93.70
44215;DHT22;29884;47.450;19.124;2023-04-01T16:55:12;14.70;93.50
44215;DHT22;29884;47.450;19.124;2023-04-01T16:57:46;14.70;93.30
44215;DHT22;29884;47.450;19.124;2023-04-01T17:11:18;14.30;94.50
44215;DHT22;29884;47.450;19.124;2023-04-01T17:13:57;14.30;95.30
44215;DHT22;29884;47.450;19.124;2023-04-01T17:21:57;14.20;95.20
44215;DHT22;29884;47.450;19.124;2023-04-01T17:27:16;14.10;95.40
44215;DHT22;29884;47.450;19.124;2023-04-01T17:33:08;14.00;96.20
44215;DHT22;29884;47.450;19.124;2023-04-01T18:00:24;13.30;99.90
44215;DHT22;29884;47.450;19.124;2023-04-01T18:05:41;13.20;99.90
44215;DHT22;29884;47.450;19.124;2023-04-01T18:14:02;13.00;99.90
44215;DHT22;29884;47.450;19.124;2023-04-01T18:16:43;13.00;99.90
44215;DHT22;29884;47.450;19.124;2023-04-01T18:27:50;12.70;99.90
44215;DHT22;29884;47.450;19.124;2023-04-01T18:30:32;12.70;99.90
44215;DHT22;29884;47.450;19.124;2023-04-01T18:38:15;12.50;99.90
44215;DHT22;29884;47.450;19.124;2023-04-01T18:40:51;12.40;99.90
44215;DHT22;29884;47.450;19.124;2023-04-01T18:49:06;12.30;99.90
44215;DHT22;29884;47.450;19.124;2023-04-01T18:51:46;12.10;99.90
44215;DHT22;29884;47.450;19.124;2023-04-01T18:54:39;12.10;99.90
44215;DHT22;29884;47.450;19.124;2023-04-01T18:57:16;12.10;99.90
44215;DHT22;29884;47.450;19.124;2023-04-01T19:02:35;12.10;99.90
44215;DHT22;29884;47.450;19.124;2023-04-01T19:07:47;12.10;99.90
44215;DHT22;29884;47.450;19.124;2023-04-01T19:10:14;12.00;99.90
44215;DHT22;29884;47.450;19.124;2023-04-01T19:16:08;11.90;99.90
44215;DHT22;29884;47.450;19.124;2023-04-01T19:18:46;11.90;99.90
44215;DHT22;29884;47.450;19.124;2023-04-01T19:21:21;11.80;99.90
44215;DHT22;29884;47.450;19.124;2023-04-01T19:32:32;11.70;99.90
44215;DHT22;29884;47.450;19.124;2023-04-01T19:35:26;11.60;99.90
44215;DHT22;29884;47.450;19.124;2023-04-01T19:37:57;11.60;99.90
44215;DHT22;29884;47.450;19.124;2023-04-01T19:46:01;11.50;99.90
44215;DHT22;29884;47.450;19.124;2023-04-01T19:51:42;11.40;99.90
44215;DHT22;29884;47.450;19.124;2023-04-01T19:54:50;11.30;99.90
44215;DHT22;29884;47.450;19.124;2023-04-01T19:57:38;11.20;99.90
44215;DHT22;29884;47.450;19.124;2023-04-01T20:08:36;10.90;99.90
44215;DHT22;29884;47.450;19.124;2023-04-01T20:19:59;10.80;99.90
44215;DHT22;29884;47.450;19.124;2023-04-01T20:36:04;10.90;99.90
44215;DHT22;29884;47.450;19.124;2023-04-01T20:41:45;10.80;99.90
44215;DHT22;29884;47.450;19.124;2023-04-01T20:45:01;10.80;99.90
44215;DHT22;29884;47.450;19.124;2023-04-01T20:50:29;10.60;99.90
44215;DHT22;29884;47.450;19.124;2023-04-01T20:53:15;10.50;99.90
44215;DHT22;29884;47.450;19.124;2023-04-01T20:58:18;10.40;99.90
44215;DHT22;29884;47.450;19.124;2023-04-01T21:06:35;10.20;99.90
44215;DHT22;29884;47.450;19.124;2023-04-01T21:31:50;9.70;99.90
44215;DHT22;29884;47.450;19.124;2023-04-01T21:57:21;9.40;99.90
44215;DHT22;29884;47.450;19.124;2023-04-01T21:59:57;9.40;99.90
44215;DHT22;29884;47.450;19.124;2023-04-01T22:05:50;9.60;99.90
44215;DHT22;29884;47.450;19.124;2023-04-01T22:10:55;9.60;99.90
44215;DHT22;29884;47.450;19.124;2023-04-01T22:13:46;9.60;99.90
44215;DHT22;29884;47.450;19.124;2023-04-01T22:32:47;9.70;99.90
44215;DHT22;29884;47.450;19.124;2023-04-01T22:35:32;9.80;99.90
44215;DHT22;29884;47.450;19.124;2023-04-01T22:43:41;10.40;99.90
44215;DHT22;29884;47.450;19.124;2023-04-01T22:48:41;10.80;99.90
44215;DHT22;29884;47.450;19.124;2023-04-01T22:51:38;10.70;99.90
44215;DHT22;29884;47.450;19.124;2023-04-01T22:54:23;10.60;99.90
44215;DHT22;29884;47.450;19.124;2023-04-01T22:57:04;10.70;99.90
44215;DHT22;29884;47.450;19.124;2023-04-01T22:59:54;10.70;99.90
44215;DHT22;29884;47.450;19.124;2023-04-01T23:02:25;10.80;99.90
44215;DHT22;29884;47.450;19.124;2023-04-01T23:04:56;10.70;99.90
44215;DHT22;29884;47.450;19.124;2023-04-01T23:10:58;10.80;99.90
44215;DHT22;29884;47.450;19.124;2023-04-01T23:13:28;10.80;99.90
44215;DHT22;29884;47.450;19.124;2023-04-01T23:15:55;10.70;99.90
44215;DHT22;29884;47.450;19.124;2023-04-01T23:24:05;10.70;99.90
44215;DHT22;29884;47.450;19.124;2023-04-01T23:26:40;10.70;99.90
44215;DHT22;29884;47.450;19.124;2023-04-01T23:29:15;10.70;99.90
44215;DHT22;29884;47.450;19.124;2023-04-01T23:31:45;10.70;99.90
44215;DHT22;29884;47.450;19.124;2023-04-01T23:36:43;10.70;99.90
44215;DHT22;29884;47.450;19.124;2023-04-01T23:39:25;10.70;99.90
44215;DHT22;29884;47.450;19.124;2023-04-01T23:41:55;10.70;99.90
44215;DHT22;29884;47.450;19.124;2023-04-01T23:44:24;10.60;99.90
44215;DHT22;29884;47.450;19.124;2023-04-01T23:46:51;10.60;99.90
44215;DHT22;29884;47.450;19.124;2023-04-01T23:49:38;10.50;99.90
44215;DHT22;29884;47.450;19.124;2023-04-01T23:52:22;10.40;99.90
44215;DHT22;29884;47.450;19.124;2023-04-01T23:57:32;10.30;99.90
